Las Vegas, Nevada (DRI) Weather observations

Data are for observation ending at time listed.
 Day   Time    Ave.   Ave.  Ave.  Vector   Max.   Stn.    Total    Solar   Ave.  
  of    of     Air    Rel.  Wind   Wind    Wind   Baro.  Precip.   Rad.    Soil  
Year   Day     Temp.  Hum.  Speed  Dir.    Gust   Pres.                    Temp. 
2026   (PST)    F      %     mph   deg.    mph     mb.     in.     W/m2     F   
------------------------------------------------------------------------------
 127   12:20   90.2    12    1.9   193      4.3   942.4    0.00     934    88.3
 127   12:30   90.8    12    1.3    76      3.7   942.2    0.00     929    89.0
 127   12:40   91.0    12    1.3   174      3.7   942.0    0.00     920    89.8
 127   12:50   90.4    12    2.0    29      5.4   941.8    0.00     910    90.5
 127   13:00   88.9    12    2.3    49      6.2   941.6    0.00     899    91.2
 127   13:10   89.2    12    3.3    37      7.2   941.3    0.00     887    91.8
 127   13:20   89.9    12    2.5    23      5.4   941.2    0.00     872    92.4
 127   13:30   90.1    12    2.0    52      4.6   941.1    0.00     857    93.0
 127   13:40   91.6    12    2.6   342      7.1   940.8    0.00     840    93.4
 127   13:50   91.3    12    1.8    24      5.9   940.6    0.00     822    93.9
 127   14:00   92.4    12    2.8   214      5.5   940.4    0.00     803    94.3
 127   14:10   92.4    12    3.2   178      6.3   940.2    0.00     781    94.6
 127   14:20   92.3    12    3.5   196     11.0   940.0    0.00     758    94.9
 127   14:30   93.4    12    3.2   356      7.8   939.8    0.00     733    95.3
 127   14:40   93.0    12    3.4     4      7.7   939.6    0.00     707    95.5
 127   14:50   92.7    12    2.3     9      4.8   939.5    0.00     681    95.7
 127   15:00   93.9    12    1.5   341      5.3   939.3    0.00     653    95.8
 127   15:10   94.4    11    2.2   327      6.1   939.2    0.00     625    95.9
 127   15:20   94.2    12    1.8   261      5.4   939.0    0.00     595    96.0
 127   15:30   93.5    12    2.5    27      5.3   938.9    0.00     563    95.9
 127   15:40   94.0    12    1.3    11      5.1   938.8    0.00     531    95.9
 127   15:50   95.2    11    2.4   328      6.4   938.8    0.00     500    95.8
 127   16:00   95.6    11    2.5   317      5.3   938.6    0.00     468    95.7
 127   16:10   94.9    12    1.8    19      4.3   938.5    0.00     434    95.5
 127   16:20   95.1    12    1.5   220      3.8   938.5    0.00     399    95.4
 127   16:30   96.8    12    0.8   262      2.7   938.4    0.00     366    95.3
 127   16:40   96.3    12    1.1    34      3.6   938.4    0.00     332    95.1
 127   16:50   95.9    12    1.4   357      5.3   938.3    0.00     299    95.0
 127   17:00   95.3    12    1.5   176      4.2   938.3    0.00     265    94.8
 127   17:10   97.5    12    0.1    70      1.2   938.3    0.00     231    94.6
 127   17:20   97.6    12    0.4    11      1.6   938.2    0.00     198    94.5
 127   17:30   96.4    12    1.0   186      3.4   938.2    0.00     168    94.2
 127   17:40   94.4    12    1.2   190      2.9   938.1    0.00     139    94.0
 127   17:50   93.7    13    1.6   176      4.0   938.1    0.00     111    93.7
 127   18:00   92.0    13    0.7   178      2.8   938.1    0.00      40    93.3
 127   18:10   91.9    14    1.3   178      3.1   938.1    0.00      35    92.9
 127   18:20   91.2    14    0.9   167      4.2   938.2    0.00      21    92.6
 127   18:30   90.4    14    0.4   199      1.8   938.3    0.00       8    92.2
 127   18:40   89.7    14    0.3   205      1.8   938.4    0.00       4    91.8
 127   18:50   89.3    15    0.7   177      2.3   938.4    0.00       1    91.5
 127   19:00   88.7    15    0.3   184      2.0   938.5    0.00       0    91.1
 127   19:10   88.3    15    0.1   360      1.2   938.7    0.00       0    90.7
 127   19:20   88.6    14    1.8   181      6.5   938.8    0.00       0    90.3
 127   19:30   89.1    13    2.7   167      6.3   938.9    0.00       0    90.0
 127   19:40   89.3    12    3.0   175      7.2   939.0    0.00       0    89.7
 127   19:50   89.1    12    2.8   185      5.8   939.1    0.00       0    89.3
 127   20:00   88.8    12    3.4   178      8.0   939.1    0.00       0    89.0
 127   20:10   88.4    13    4.2   186      7.7   939.2    0.00       0    88.6
 127   20:20   87.7    13    3.5   177      5.5   939.3    0.00       0    88.3
 127   20:30   87.3    13    3.0   181      4.6   939.4    0.00       0    88.0
 127   20:40   86.9    13    2.7   187      5.7   939.3    0.00       0    87.8
 127   20:50   86.8    13    3.5   191      6.7   939.3    0.00       0    87.5
 127   21:00   86.6    13    3.2   188      6.1   939.4    0.00       0    87.3
 127   21:10   86.3    14    3.4   190      6.8   939.4    0.00       0    87.1
 127   21:20   86.2    14    2.2   202      4.6   939.4    0.00       0    86.8
 127   21:30   85.8    14    1.9   206      3.9   939.4    0.00       0    86.7
 127   21:40   85.6    14    1.8   202      4.4   939.4    0.00       0    86.5
 127   21:50   85.2    14    1.6   176      3.5   939.3    0.00       0    86.3
 127   22:00   84.1    15    0.7   167      1.7   939.4    0.00       0    86.1
 127   22:10   83.8    16    0.9   173      2.6   939.3    0.00       0    86.0
 127   22:20   83.2    15    1.7   162      3.2   939.4    0.00       0    85.8
 127   22:30   83.0    14    2.2   168      4.3   939.4    0.00       0    85.6
 127   22:40   82.3    15    0.1   160      2.8   939.6    0.00       0    85.4
 127   22:50   81.4    15    2.5   165      4.7   939.6    0.00       0    85.2
 127   23:00   81.4    15    2.6   181      4.9   939.7    0.00       0    85.0
 127   23:10   81.5    15    3.0   180      5.1   939.6    0.00       0    84.8
 127   23:20   81.4    15    2.2   174      3.7   939.7    0.00       0    84.6
 127   23:30   80.9    16    2.2   172      3.3   939.7    0.00       0    84.4
 127   23:40   80.9    16    1.4   167      3.1   939.7    0.00       0    84.2
 127   23:50   80.5    16    0.3   155      1.5   939.7    0.00       0    84.1
 128    0:00   79.7    17    0.5   179      1.7   939.6    0.00       0    83.9
 128    0:10   79.1    19    0.4   168      1.4   939.5    0.00       0    83.8
 128    0:20   78.5    19    0.4     8      1.9   939.6    0.00       0    83.6
 128    0:30   77.9    20    0.0     0      0.0   939.6    0.00       0    83.4
 128    0:40   76.8    22    0.5   145      2.5   939.6    0.00       0    83.2
 128    0:50   77.1    22    0.3   347      1.8   939.5    0.00       0    83.1
 128    1:00   76.9    22    0.0    76      0.6   939.6    0.00       0    83.0
 128    1:10   75.7    24    0.3   161      1.5   939.6    0.00       0    82.8
 128    1:20   75.2    23    0.3    30      1.8   939.6    0.00       0    82.6
 128    1:30   75.7    22    1.5     3      2.4   939.6    0.00       0    82.4
 128    1:40   75.3    23    0.4     6      1.8   939.5    0.00       0    82.3
 128    1:50   75.1    24    0.5   165      2.2   939.5    0.00       0    82.1
 128    2:00   74.2    25    1.2   167      2.7   939.7    0.00       0    81.9
 128    2:10   74.2    24    0.5   212      1.8   939.7    0.00       0    81.8
 128    2:20   74.7    24    0.3   101      1.5   939.8    0.00       0    81.6
 128    2:30   74.3    24    0.2   189      1.2   939.9    0.00       0    81.5
 128    2:40   73.3    25    0.0   163      0.3   939.9    0.00       0    81.3
 128    2:50   73.0    25    0.0     0      0.0   939.9    0.00       0    81.2
 128    3:00   73.2    24    0.0    53      0.7   939.8    0.00       0    81.0
 128    3:10   73.3    24    0.3   195      1.1   939.9    0.00       0    80.9
 128    3:20   72.5    25    0.0   185      0.6   939.9    0.00       0    80.7
 128    3:30   72.3    25    0.0   167      0.6   940.0    0.00       0    80.6
 128    3:40   72.7    24    0.8   174      2.9   939.8    0.00       0    80.4
 128    3:50   74.0    22    1.1   195      3.1   940.0    0.00       0    80.2
 128    4:00   74.5    22    0.8    74      2.6   940.0    0.00       0    80.1
 128    4:10   73.2    24    1.2   197      2.6   940.0    0.00       0    80.0
 128    4:20   72.9    24    1.0   187      2.6   940.0    0.00       0    79.8
 128    4:30   73.0    24    0.7   206      1.8   940.0    0.00       0    79.7
 128    4:40   73.0    25    0.5    52      1.8   940.1    0.00       2    79.6
 128    4:50   72.8    25    0.6    84      1.7   940.1    0.00       5    79.5
 128    5:00   72.0    27    0.6   231      2.9   940.3    0.00      11    79.4
 128    5:10   72.0    27    0.3    14      2.6   940.4    0.00      17    79.2
 128    5:20   72.0    27    0.3    29      1.2   940.5    0.00      23    79.1
 128    5:30   72.3    28    0.0     0      0.0   940.7    0.00      23    79.0
 128    5:40   72.4    28    0.0     0      0.0   940.8    0.00      21    78.9
 128    5:50   72.4    27    0.3   170      1.3   940.9    0.00      23    78.8
 128    6:00   73.3    26    0.0     0      0.0   941.0    0.00      25    78.7
 128    6:10   75.1    25    0.4     9      1.7   941.2    0.00      26    78.6
 128    6:20   75.8    25    0.4   144      2.1   941.3    0.00      28    78.6
 128    6:30   76.5    24    0.3   237      2.3   941.3    0.00      29    78.5
 128    6:40   77.2    22    1.1   175      3.6   941.4    0.00      31    78.5
 128    6:50   78.6    21    0.7   180      2.6   941.4    0.00      32    78.5
 128    7:00   79.3    20    2.1   170      4.4   941.5    0.00      33    78.4
 128    7:10   80.0    20    2.3   180      4.6   941.5    0.00      35    78.5
 128    7:20   80.7    20    2.5   177      7.0   941.5    0.00      37    78.4
 128    7:30   81.1    20    0.8   166      3.3   941.4    0.00      42    78.4
 128    7:40   81.7    20    0.8   152      2.9   941.3    0.00      42    78.4
 128    7:50   82.6    19    0.7   170      2.3   941.3    0.00      47    78.4
 128    8:00   83.7    18    1.0   199      3.1   941.3    0.00      95    78.4
 128    8:10   84.7    17    1.6   275      4.6   941.4    0.00      79    78.3
 128    8:20   85.4    16    1.1     8      5.4   941.4    0.00      81    78.4
 128    8:30   85.9    16    1.9   351      4.7   941.4    0.00      86    78.4
 128    8:40   86.4    15    1.8   354      5.6   941.4    0.00     153    78.4
 128    8:50   86.6    16    0.8    54      4.2   941.4    0.00     617    78.5
 128    9:00   87.3    15    1.2    58      4.9   941.4    0.00     556    78.5
 128    9:10   87.5    15    1.3    43      3.5   941.3    0.00     735    78.6
 128    9:20   88.9    14    1.4   323      3.3   941.3    0.00     759    78.7
 128    9:30   89.8    14    0.9    56      3.8   941.3    0.00     782    79.0
 128    9:40   91.3    14    0.6   137      3.1   941.3    0.00     803    79.2
 128    9:50   91.7    14    1.5   160      3.7   941.2    0.00     822    79.5
 128   10:00   91.7    14    1.3   177      3.5   941.1    0.00     840    79.8
 128   10:10   93.3    13    1.3   123      3.7   941.0    0.00     856    80.3
 128   10:20   93.6    13    1.8   200      4.1   940.9    0.00     871    81.0
 128   10:30   93.9    12    1.9   302      5.0   940.8    0.00     884    81.8
 128   10:40   94.1    12    1.9   280      4.2   940.7    0.00     898    82.7
 128   10:50   94.4    12    1.6   349      6.2   940.5    0.00     907    83.7
 128   11:00   94.8    12    1.7   345      6.1   940.4    0.00     916    84.7
 128   11:10   95.9    12    2.7   170      6.0   940.2    0.00     923    85.6
 128   11:20   96.0    12    2.3   182      6.9   940.0    0.00     931    86.5
 128   11:30   96.2    12    2.1   249      6.1   939.9    0.00     934    87.5
 128   11:40   96.8    12    2.4   185      5.5   939.8    0.00     934    88.3
 128   11:50   97.2    11    1.2   182      3.7   939.7    0.00     933    89.2
 128   12:00   97.3    11    2.6    40      6.1   939.6    0.00     930    90.1
 128   12:10   97.6    11    2.8   170      8.2   939.5    0.00     927    90.9

Return to Las Vegas, Nevada graphs page.


Western Regional Climate Center,wrcc@dri.edu